sensor_id;sensor_type;location;lat;lon;timestamp;P1;durP1;ratioP1;P2;durP2;ratioP2
57667;SDS011;43499;52.366;12.912;2022-12-24T00:00:49;15.32;;;8.35;;
57667;SDS011;43499;52.366;12.912;2022-12-24T00:01:55;14.90;;;7.85;;
57667;SDS011;43499;52.366;12.912;2022-12-24T00:02:56;15.35;;;8.27;;
57667;SDS011;43499;52.366;12.912;2022-12-24T00:03:57;17.67;;;8.80;;
57667;SDS011;43499;52.366;12.912;2022-12-24T00:04:58;15.07;;;8.15;;
57667;SDS011;43499;52.366;12.912;2022-12-24T00:06:03;15.38;;;8.70;;
57667;SDS011;43499;52.366;12.912;2022-12-24T00:07:05;17.27;;;8.98;;
57667;SDS011;43499;52.366;12.912;2022-12-24T00:08:06;17.73;;;8.60;;
57667;SDS011;43499;52.366;12.912;2022-12-24T00:09:07;21.05;;;8.68;;
57667;SDS011;43499;52.366;12.912;2022-12-24T00:10:09;17.48;;;9.05;;
57667;SDS011;43499;52.366;12.912;2022-12-24T00:11:11;17.42;;;9.10;;
57667;SDS011;43499;52.366;12.912;2022-12-24T00:12:12;16.65;;;8.55;;
57667;SDS011;43499;52.366;12.912;2022-12-24T00:13:13;12.52;;;5.82;;
57667;SDS011;43499;52.366;12.912;2022-12-24T00:14:14;14.55;;;8.20;;
57667;SDS011;43499;52.366;12.912;2022-12-24T00:15:15;20.10;;;8.77;;
57667;SDS011;43499;52.366;12.912;2022-12-24T00:16:16;15.43;;;8.20;;
57667;SDS011;43499;52.366;12.912;2022-12-24T00:17:17;15.98;;;8.45;;
57667;SDS011;43499;52.366;12.912;2022-12-24T00:18:18;15.57;;;7.47;;
57667;SDS011;43499;52.366;12.912;2022-12-24T00:19:19;14.82;;;8.10;;
57667;SDS011;43499;52.366;12.912;2022-12-24T00:20:20;16.23;;;9.02;;
57667;SDS011;43499;52.366;12.912;2022-12-24T00:21:21;19.13;;;9.02;;
57667;SDS011;43499;52.366;12.912;2022-12-24T00:22:22;15.27;;;8.77;;
57667;SDS011;43499;52.366;12.912;2022-12-24T00:23:24;14.02;;;8.27;;
57667;SDS011;43499;52.366;12.912;2022-12-24T00:24:25;17.40;;;8.50;;
57667;SDS011;43499;52.366;12.912;2022-12-24T00:25:26;17.38;;;9.05;;
57667;SDS011;43499;52.366;12.912;2022-12-24T00:26:26;15.02;;;8.85;;
57667;SDS011;43499;52.366;12.912;2022-12-24T00:27:28;16.17;;;8.23;;
57667;SDS011;43499;52.366;12.912;2022-12-24T00:28:29;20.00;;;9.70;;
57667;SDS011;43499;52.366;12.912;2022-12-24T00:29:30;17.00;;;8.75;;
57667;SDS011;43499;52.366;12.912;2022-12-24T00:30:32;16.17;;;8.25;;
57667;SDS011;43499;52.366;12.912;2022-12-24T00:31:33;17.65;;;8.73;;
57667;SDS011;43499;52.366;12.912;2022-12-24T00:32:34;20.00;;;8.30;;
57667;SDS011;43499;52.366;12.912;2022-12-24T00:33:35;15.40;;;8.50;;
57667;SDS011;43499;52.366;12.912;2022-12-24T00:34:36;18.75;;;10.18;;
57667;SDS011;43499;52.366;12.912;2022-12-24T00:35:37;14.75;;;8.50;;
57667;SDS011;43499;52.366;12.912;2022-12-24T00:36:39;18.58;;;8.60;;
57667;SDS011;43499;52.366;12.912;2022-12-24T00:37:40;16.98;;;9.05;;
57667;SDS011;43499;52.366;12.912;2022-12-24T00:38:41;16.05;;;8.68;;
57667;SDS011;43499;52.366;12.912;2022-12-24T00:39:42;11.80;;;7.13;;
57667;SDS011;43499;52.366;12.912;2022-12-24T00:40:43;15.00;;;7.95;;
57667;SDS011;43499;52.366;12.912;2022-12-24T00:41:44;13.95;;;8.02;;
57667;SDS011;43499;52.366;12.912;2022-12-24T00:42:45;16.80;;;8.02;;
57667;SDS011;43499;52.366;12.912;2022-12-24T00:43:46;14.77;;;7.82;;
57667;SDS011;43499;52.366;12.912;2022-12-24T00:44:47;13.82;;;7.72;;
57667;SDS011;43499;52.366;12.912;2022-12-24T00:45:48;12.93;;;7.47;;
57667;SDS011;43499;52.366;12.912;2022-12-24T00:46:49;13.25;;;7.22;;
57667;SDS011;43499;52.366;12.912;2022-12-24T00:47:50;14.90;;;7.20;;
57667;SDS011;43499;52.366;12.912;2022-12-24T00:48:51;16.80;;;8.02;;
57667;SDS011;43499;52.366;12.912;2022-12-24T00:49:53;13.13;;;6.82;;
57667;SDS011;43499;52.366;12.912;2022-12-24T00:50:54;17.83;;;7.47;;
57667;SDS011;43499;52.366;12.912;2022-12-24T00:51:55;13.10;;;7.45;;
57667;SDS011;43499;52.366;12.912;2022-12-24T00:52:56;15.43;;;8.20;;
57667;SDS011;43499;52.366;12.912;2022-12-24T00:53:57;15.25;;;7.60;;
57667;SDS011;43499;52.366;12.912;2022-12-24T00:54:58;13.38;;;7.57;;
57667;SDS011;43499;52.366;12.912;2022-12-24T00:55:59;16.27;;;7.95;;
57667;SDS011;43499;52.366;12.912;2022-12-24T00:57:00;14.15;;;7.72;;
57667;SDS011;43499;52.366;12.912;2022-12-24T00:58:01;15.20;;;8.20;;
57667;SDS011;43499;52.366;12.912;2022-12-24T00:59:02;12.48;;;7.80;;
57667;SDS011;43499;52.366;12.912;2022-12-24T01:00:03;13.57;;;6.75;;
57667;SDS011;43499;52.366;12.912;2022-12-24T01:01:05;13.63;;;7.15;;
57667;SDS011;43499;52.366;12.912;2022-12-24T01:02:06;13.02;;;7.13;;
57667;SDS011;43499;52.366;12.912;2022-12-24T01:03:07;13.27;;;7.93;;
57667;SDS011;43499;52.366;12.912;2022-12-24T01:04:08;13.15;;;7.55;;
57667;SDS011;43499;52.366;12.912;2022-12-24T01:05:28;14.48;;;7.18;;
57667;SDS011;43499;52.366;12.912;2022-12-24T01:06:29;16.23;;;8.25;;
57667;SDS011;43499;52.366;12.912;2022-12-24T01:07:30;15.00;;;8.20;;
57667;SDS011;43499;52.366;12.912;2022-12-24T01:08:31;13.80;;;7.43;;
57667;SDS011;43499;52.366;12.912;2022-12-24T01:09:33;15.07;;;7.93;;
57667;SDS011;43499;52.366;12.912;2022-12-24T01:10:34;14.02;;;6.85;;
57667;SDS011;43499;52.366;12.912;2022-12-24T01:11:35;11.45;;;6.78;;
57667;SDS011;43499;52.366;12.912;2022-12-24T01:12:36;14.15;;;7.43;;
57667;SDS011;43499;52.366;12.912;2022-12-24T01:13:37;14.27;;;7.68;;
57667;SDS011;43499;52.366;12.912;2022-12-24T01:14:39;13.90;;;7.65;;
57667;SDS011;43499;52.366;12.912;2022-12-24T01:15:40;14.05;;;7.32;;
57667;SDS011;43499;52.366;12.912;2022-12-24T01:16:41;15.82;;;7.50;;
57667;SDS011;43499;52.366;12.912;2022-12-24T01:17:42;11.98;;;7.05;;
57667;SDS011;43499;52.366;12.912;2022-12-24T01:18:43;15.82;;;8.07;;
57667;SDS011;43499;52.366;12.912;2022-12-24T01:19:44;14.15;;;7.75;;
57667;SDS011;43499;52.366;12.912;2022-12-24T01:20:45;12.05;;;6.80;;
57667;SDS011;43499;52.366;12.912;2022-12-24T01:21:57;10.18;;;5.75;;
57667;SDS011;43499;52.366;12.912;2022-12-24T01:22:58;12.13;;;7.10;;
57667;SDS011;43499;52.366;12.912;2022-12-24T01:23:59;16.45;;;7.22;;
57667;SDS011;43499;52.366;12.912;2022-12-24T01:25:00;14.85;;;7.75;;
57667;SDS011;43499;52.366;12.912;2022-12-24T01:26:02;11.98;;;7.03;;
57667;SDS011;43499;52.366;12.912;2022-12-24T01:27:04;14.60;;;7.93;;
57667;SDS011;43499;52.366;12.912;2022-12-24T01:28:05;16.95;;;8.70;;
57667;SDS011;43499;52.366;12.912;2022-12-24T01:29:06;14.65;;;7.50;;
57667;SDS011;43499;52.366;12.912;2022-12-24T01:30:07;13.65;;;7.30;;
57667;SDS011;43499;52.366;12.912;2022-12-24T01:31:10;11.55;;;6.45;;
57667;SDS011;43499;52.366;12.912;2022-12-24T01:32:13;11.05;;;6.70;;
57667;SDS011;43499;52.366;12.912;2022-12-24T01:33:14;13.48;;;6.95;;
57667;SDS011;43499;52.366;12.912;2022-12-24T01:34:15;11.43;;;6.82;;
57667;SDS011;43499;52.366;12.912;2022-12-24T01:35:16;12.20;;;7.05;;
57667;SDS011;43499;52.366;12.912;2022-12-24T01:36:17;12.18;;;6.45;;
57667;SDS011;43499;52.366;12.912;2022-12-24T01:37:18;10.43;;;5.80;;
57667;SDS011;43499;52.366;12.912;2022-12-24T01:38:19;9.07;;;5.60;;
57667;SDS011;43499;52.366;12.912;2022-12-24T01:39:20;9.88;;;6.18;;
57667;SDS011;43499;52.366;12.912;2022-12-24T01:40:24;12.23;;;6.70;;
57667;SDS011;43499;52.366;12.912;2022-12-24T01:41:45;11.43;;;5.88;;
57667;SDS011;43499;52.366;12.912;2022-12-24T01:43:10;10.27;;;5.90;;
57667;SDS011;43499;52.366;12.912;2022-12-24T01:44:29;8.57;;;5.05;;
57667;SDS011;43499;52.366;12.912;2022-12-24T01:45:45;10.25;;;5.70;;
57667;SDS011;43499;52.366;12.912;2022-12-24T01:46:49;10.85;;;5.90;;
57667;SDS011;43499;52.366;12.912;2022-12-24T01:47:53;12.90;;;6.00;;
57667;SDS011;43499;52.366;12.912;2022-12-24T01:48:55;12.23;;;7.05;;
57667;SDS011;43499;52.366;12.912;2022-12-24T01:49:59;10.27;;;6.63;;
57667;SDS011;43499;52.366;12.912;2022-12-24T01:51:50;10.40;;;6.15;;
57667;SDS011;43499;52.366;12.912;2022-12-24T01:52:33;9.65;;;5.85;;
57667;SDS011;43499;52.366;12.912;2022-12-24T01:53:36;9.68;;;6.18;;
57667;SDS011;43499;52.366;12.912;2022-12-24T01:54:40;11.95;;;5.97;;
57667;SDS011;43499;52.366;12.912;2022-12-24T01:55:46;10.52;;;6.00;;
57667;SDS011;43499;52.366;12.912;2022-12-24T01:56:53;8.93;;;5.68;;
57667;SDS011;43499;52.366;12.912;2022-12-24T01:57:59;10.68;;;6.05;;
57667;SDS011;43499;52.366;12.912;2022-12-24T01:59:06;10.13;;;5.47;;
57667;SDS011;43499;52.366;12.912;2022-12-24T02:00:11;11.90;;;6.07;;
57667;SDS011;43499;52.366;12.912;2022-12-24T02:01:13;10.93;;;6.15;;
57667;SDS011;43499;52.366;12.912;2022-12-24T02:02:15;9.90;;;6.20;;
57667;SDS011;43499;52.366;12.912;2022-12-24T02:03:17;12.68;;;6.50;;
57667;SDS011;43499;52.366;12.912;2022-12-24T02:05:29;11.48;;;5.78;;
57667;SDS011;43499;52.366;12.912;2022-12-24T02:06:35;11.60;;;6.20;;
57667;SDS011;43499;52.366;12.912;2022-12-24T02:07:36;12.50;;;6.63;;
57667;SDS011;43499;52.366;12.912;2022-12-24T02:08:37;11.45;;;6.57;;
57667;SDS011;43499;52.366;12.912;2022-12-24T02:09:42;13.02;;;6.43;;
57667;SDS011;43499;52.366;12.912;2022-12-24T02:10:46;12.95;;;6.78;;
57667;SDS011;43499;52.366;12.912;2022-12-24T02:11:48;13.25;;;6.78;;
57667;SDS011;43499;52.366;12.912;2022-12-24T02:12:49;12.02;;;7.10;;
57667;SDS011;43499;52.366;12.912;2022-12-24T02:13:52;12.05;;;6.50;;
57667;SDS011;43499;52.366;12.912;2022-12-24T02:14:58;14.00;;;6.53;;
57667;SDS011;43499;52.366;12.912;2022-12-24T02:17:18;15.20;;;7.38;;
57667;SDS011;43499;52.366;12.912;2022-12-24T02:18:45;12.93;;;6.70;;
57667;SDS011;43499;52.366;12.912;2022-12-24T02:20:10;11.85;;;6.82;;
57667;SDS011;43499;52.366;12.912;2022-12-24T02:23:06;10.63;;;6.20;;
57667;SDS011;43499;52.366;12.912;2022-12-24T02:25:43;15.13;;;6.90;;
57667;SDS011;43499;52.366;12.912;2022-12-24T02:28:34;11.57;;;6.60;;
57667;SDS011;43499;52.366;12.912;2022-12-24T02:29:51;14.15;;;6.38;;
57667;SDS011;43499;52.366;12.912;2022-12-24T02:31:05;12.82;;;7.47;;
57667;SDS011;43499;52.366;12.912;2022-12-24T02:32:23;11.77;;;7.30;;
57667;SDS011;43499;52.366;12.912;2022-12-24T02:33:37;11.80;;;7.13;;
57667;SDS011;43499;52.366;12.912;2022-12-24T02:35:53;12.73;;;6.90;;
57667;SDS011;43499;52.366;12.912;2022-12-24T02:37:35;12.23;;;7.03;;
57667;SDS011;43499;52.366;12.912;2022-12-24T02:38:44;15.48;;;6.85;;
57667;SDS011;43499;52.366;12.912;2022-12-24T02:39:54;11.48;;;6.20;;
57667;SDS011;43499;52.366;12.912;2022-12-24T02:41:07;11.05;;;6.68;;
57667;SDS011;43499;52.366;12.912;2022-12-24T02:42:11;11.43;;;6.93;;
57667;SDS011;43499;52.366;12.912;2022-12-24T02:43:19;15.57;;;7.70;;
57667;SDS011;43499;52.366;12.912;2022-12-24T02:44:25;12.60;;;6.63;;
57667;SDS011;43499;52.366;12.912;2022-12-24T02:45:29;13.48;;;7.13;;
57667;SDS011;43499;52.366;12.912;2022-12-24T02:46:32;16.15;;;7.90;;
57667;SDS011;43499;52.366;12.912;2022-12-24T02:47:33;14.10;;;7.28;;
57667;SDS011;43499;52.366;12.912;2022-12-24T02:48:35;12.73;;;7.35;;
57667;SDS011;43499;52.366;12.912;2022-12-24T02:49:37;15.93;;;8.05;;
57667;SDS011;43499;52.366;12.912;2022-12-24T02:50:38;15.85;;;7.60;;
57667;SDS011;43499;52.366;12.912;2022-12-24T02:51:39;13.13;;;7.20;;
57667;SDS011;43499;52.366;12.912;2022-12-24T02:52:42;14.57;;;8.15;;
57667;SDS011;43499;52.366;12.912;2022-12-24T02:53:44;14.15;;;7.60;;
57667;SDS011;43499;52.366;12.912;2022-12-24T02:54:45;17.40;;;8.63;;
57667;SDS011;43499;52.366;12.912;2022-12-24T02:57:15;15.68;;;8.32;;
57667;SDS011;43499;52.366;12.912;2022-12-24T03:00:08;17.02;;;8.93;;
57667;SDS011;43499;52.366;12.912;2022-12-24T03:01:18;16.17;;;9.00;;
57667;SDS011;43499;52.366;12.912;2022-12-24T03:02:46;18.58;;;9.45;;
57667;SDS011;43499;52.366;12.912;2022-12-24T03:04:17;14.10;;;7.75;;
57667;SDS011;43499;52.366;12.912;2022-12-24T03:05:42;13.73;;;7.28;;
57667;SDS011;43499;52.366;12.912;2022-12-24T03:06:49;14.85;;;7.38;;
57667;SDS011;43499;52.366;12.912;2022-12-24T03:08:37;15.70;;;7.15;;
57667;SDS011;43499;52.366;12.912;2022-12-24T03:10:53;14.02;;;7.68;;
57667;SDS011;43499;52.366;12.912;2022-12-24T03:11:59;13.15;;;6.88;;
57667;SDS011;43499;52.366;12.912;2022-12-24T03:13:07;14.35;;;7.35;;
57667;SDS011;43499;52.366;12.912;2022-12-24T03:14:13;12.32;;;8.00;;
57667;SDS011;43499;52.366;12.912;2022-12-24T03:15:16;15.38;;;7.68;;
57667;SDS011;43499;52.366;12.912;2022-12-24T03:16:23;13.63;;;7.63;;
57667;SDS011;43499;52.366;12.912;2022-12-24T03:17:26;13.57;;;7.20;;
57667;SDS011;43499;52.366;12.912;2022-12-24T03:18:27;13.43;;;8.05;;
57667;SDS011;43499;52.366;12.912;2022-12-24T03:19:30;14.25;;;7.75;;
57667;SDS011;43499;52.366;12.912;2022-12-24T03:20:34;13.40;;;8.00;;
57667;SDS011;43499;52.366;12.912;2022-12-24T03:21:39;12.20;;;7.00;;
57667;SDS011;43499;52.366;12.912;2022-12-24T03:22:42;13.68;;;7.45;;
57667;SDS011;43499;52.366;12.912;2022-12-24T03:23:43;13.00;;;7.20;;
57667;SDS011;43499;52.366;12.912;2022-12-24T03:24:44;17.23;;;7.90;;
57667;SDS011;43499;52.366;12.912;2022-12-24T03:25:45;14.77;;;7.55;;
57667;SDS011;43499;52.366;12.912;2022-12-24T03:26:46;13.98;;;7.93;;
57667;SDS011;43499;52.366;12.912;2022-12-24T03:27:48;13.68;;;7.70;;
57667;SDS011;43499;52.366;12.912;2022-12-24T03:28:49;17.85;;;8.45;;
57667;SDS011;43499;52.366;12.912;2022-12-24T03:29:50;15.18;;;9.00;;
57667;SDS011;43499;52.366;12.912;2022-12-24T03:30:51;14.93;;;8.45;;
57667;SDS011;43499;52.366;12.912;2022-12-24T03:31:52;18.08;;;9.23;;
57667;SDS011;43499;52.366;12.912;2022-12-24T03:33:00;14.80;;;8.30;;
57667;SDS011;43499;52.366;12.912;2022-12-24T03:34:01;20.10;;;8.63;;
57667;SDS011;43499;52.366;12.912;2022-12-24T03:35:02;17.30;;;8.60;;
57667;SDS011;43499;52.366;12.912;2022-12-24T03:36:04;17.27;;;8.88;;
57667;SDS011;43499;52.366;12.912;2022-12-24T03:37:06;18.85;;;9.60;;
57667;SDS011;43499;52.366;12.912;2022-12-24T03:38:07;16.17;;;8.73;;
57667;SDS011;43499;52.366;12.912;2022-12-24T03:39:08;17.10;;;9.10;;
57667;SDS011;43499;52.366;12.912;2022-12-24T03:40:09;18.02;;;10.02;;
57667;SDS011;43499;52.366;12.912;2022-12-24T03:41:11;18.73;;;9.98;;
57667;SDS011;43499;52.366;12.912;2022-12-24T03:42:12;18.98;;;9.70;;
57667;SDS011;43499;52.366;12.912;2022-12-24T03:43:13;18.27;;;8.90;;
57667;SDS011;43499;52.366;12.912;2022-12-24T03:44:14;16.65;;;8.60;;
57667;SDS011;43499;52.366;12.912;2022-12-24T03:45:15;16.88;;;9.57;;
57667;SDS011;43499;52.366;12.912;2022-12-24T03:46:16;17.20;;;10.18;;
57667;SDS011;43499;52.366;12.912;2022-12-24T03:47:17;17.38;;;9.32;;
57667;SDS011;43499;52.366;12.912;2022-12-24T03:48:18;17.88;;;9.90;;
57667;SDS011;43499;52.366;12.912;2022-12-24T03:49:19;16.63;;;9.25;;
57667;SDS011;43499;52.366;12.912;2022-12-24T03:50:20;15.45;;;8.68;;
57667;SDS011;43499;52.366;12.912;2022-12-24T03:51:22;19.92;;;10.25;;
57667;SDS011;43499;52.366;12.912;2022-12-24T03:52:24;18.15;;;9.95;;
57667;SDS011;43499;52.366;12.912;2022-12-24T03:53:25;21.75;;;10.43;;
57667;SDS011;43499;52.366;12.912;2022-12-24T03:54:27;20.73;;;10.43;;
57667;SDS011;43499;52.366;12.912;2022-12-24T03:55:28;18.23;;;9.70;;
57667;SDS011;43499;52.366;12.912;2022-12-24T03:56:29;21.13;;;10.48;;
57667;SDS011;43499;52.366;12.912;2022-12-24T03:57:30;23.15;;;10.38;;
57667;SDS011;43499;52.366;12.912;2022-12-24T03:58:31;21.17;;;10.57;;
57667;SDS011;43499;52.366;12.912;2022-12-24T03:59:32;16.77;;;9.43;;
57667;SDS011;43499;52.366;12.912;2022-12-24T04:00:33;16.67;;;9.93;;
57667;SDS011;43499;52.366;12.912;2022-12-24T04:01:34;16.52;;;9.55;;
57667;SDS011;43499;52.366;12.912;2022-12-24T04:02:35;16.88;;;9.35;;
57667;SDS011;43499;52.366;12.912;2022-12-24T04:03:36;19.58;;;10.55;;
57667;SDS011;43499;52.366;12.912;2022-12-24T04:04:37;15.82;;;8.98;;
57667;SDS011;43499;52.366;12.912;2022-12-24T04:05:38;17.35;;;9.48;;
57667;SDS011;43499;52.366;12.912;2022-12-24T04:06:40;18.92;;;10.10;;
57667;SDS011;43499;52.366;12.912;2022-12-24T04:07:42;20.88;;;11.25;;
57667;SDS011;43499;52.366;12.912;2022-12-24T04:08:44;18.17;;;10.65;;
57667;SDS011;43499;52.366;12.912;2022-12-24T04:09:45;15.85;;;9.35;;
57667;SDS011;43499;52.366;12.912;2022-12-24T04:10:46;19.08;;;10.50;;
57667;SDS011;43499;52.366;12.912;2022-12-24T04:11:47;22.50;;;10.73;;
57667;SDS011;43499;52.366;12.912;2022-12-24T04:12:48;18.45;;;11.15;;
57667;SDS011;43499;52.366;12.912;2022-12-24T04:13:49;22.95;;;12.07;;
57667;SDS011;43499;52.366;12.912;2022-12-24T04:14:50;19.85;;;10.90;;
57667;SDS011;43499;52.366;12.912;2022-12-24T04:16:01;19.38;;;10.13;;
57667;SDS011;43499;52.366;12.912;2022-12-24T04:17:07;16.58;;;10.13;;
57667;SDS011;43499;52.366;12.912;2022-12-24T04:18:08;20.73;;;10.63;;
57667;SDS011;43499;52.366;12.912;2022-12-24T04:19:09;16.38;;;10.05;;
57667;SDS011;43499;52.366;12.912;2022-12-24T04:20:10;19.17;;;9.98;;
57667;SDS011;43499;52.366;12.912;2022-12-24T04:21:12;16.40;;;9.75;;
57667;SDS011;43499;52.366;12.912;2022-12-24T04:22:13;18.92;;;9.48;;
57667;SDS011;43499;52.366;12.912;2022-12-24T04:23:14;17.27;;;9.75;;
57667;SDS011;43499;52.366;12.912;2022-12-24T04:24:15;16.90;;;9.18;;
57667;SDS011;43499;52.366;12.912;2022-12-24T04:25:16;20.05;;;10.52;;
57667;SDS011;43499;52.366;12.912;2022-12-24T04:26:17;21.05;;;8.77;;
57667;SDS011;43499;52.366;12.912;2022-12-24T04:27:18;16.45;;;9.23;;
57667;SDS011;43499;52.366;12.912;2022-12-24T04:28:19;17.50;;;8.65;;
57667;SDS011;43499;52.366;12.912;2022-12-24T04:29:20;17.33;;;8.85;;
57667;SDS011;43499;52.366;12.912;2022-12-24T04:30:21;19.08;;;9.32;;
57667;SDS011;43499;52.366;12.912;2022-12-24T04:31:22;17.73;;;9.40;;
57667;SDS011;43499;52.366;12.912;2022-12-24T04:32:24;20.38;;;9.82;;
57667;SDS011;43499;52.366;12.912;2022-12-24T04:33:26;17.88;;;9.50;;
57667;SDS011;43499;52.366;12.912;2022-12-24T04:34:27;18.95;;;9.57;;
57667;SDS011;43499;52.366;12.912;2022-12-24T04:35:28;19.92;;;9.23;;
57667;SDS011;43499;52.366;12.912;2022-12-24T04:36:29;17.90;;;9.55;;
57667;SDS011;43499;52.366;12.912;2022-12-24T04:37:30;19.95;;;10.27;;
57667;SDS011;43499;52.366;12.912;2022-12-24T04:38:33;19.60;;;9.88;;
57667;SDS011;43499;52.366;12.912;2022-12-24T04:39:34;21.85;;;9.90;;
57667;SDS011;43499;52.366;12.912;2022-12-24T04:40:35;21.42;;;10.00;;
57667;SDS011;43499;52.366;12.912;2022-12-24T04:41:36;19.95;;;10.20;;
57667;SDS011;43499;52.366;12.912;2022-12-24T04:42:37;18.23;;;9.50;;
57667;SDS011;43499;52.366;12.912;2022-12-24T04:43:38;24.17;;;10.52;;
57667;SDS011;43499;52.366;12.912;2022-12-24T04:44:39;20.75;;;10.32;;
57667;SDS011;43499;52.366;12.912;2022-12-24T04:45:40;18.40;;;9.77;;
57667;SDS011;43499;52.366;12.912;2022-12-24T04:46:41;19.13;;;9.13;;
57667;SDS011;43499;52.366;12.912;2022-12-24T04:47:42;21.05;;;10.65;;
57667;SDS011;43499;52.366;12.912;2022-12-24T04:48:44;19.48;;;9.93;;
57667;SDS011;43499;52.366;12.912;2022-12-24T04:49:46;18.98;;;9.80;;
57667;SDS011;43499;52.366;12.912;2022-12-24T04:50:47;18.88;;;9.95;;
57667;SDS011;43499;52.366;12.912;2022-12-24T04:51:48;19.80;;;9.52;;
57667;SDS011;43499;52.366;12.912;2022-12-24T04:52:49;16.10;;;9.35;;
57667;SDS011;43499;52.366;12.912;2022-12-24T04:53:50;17.88;;;8.75;;
57667;SDS011;43499;52.366;12.912;2022-12-24T04:54:52;18.50;;;8.63;;
57667;SDS011;43499;52.366;12.912;2022-12-24T04:55:53;18.17;;;9.68;;
57667;SDS011;43499;52.366;12.912;2022-12-24T04:56:54;18.52;;;9.38;;
57667;SDS011;43499;52.366;12.912;2022-12-24T04:57:55;19.13;;;8.98;;
57667;SDS011;43499;52.366;12.912;2022-12-24T04:58:59;18.70;;;8.82;;
57667;SDS011;43499;52.366;12.912;2022-12-24T05:00:02;18.75;;;9.32;;
57667;SDS011;43499;52.366;12.912;2022-12-24T05:01:11;17.65;;;9.43;;
57667;SDS011;43499;52.366;12.912;2022-12-24T05:02:14;20.33;;;9.53;;
57667;SDS011;43499;52.366;12.912;2022-12-24T05:03:15;20.58;;;10.18;;
57667;SDS011;43499;52.366;12.912;2022-12-24T05:04:16;25.40;;;11.10;;
57667;SDS011;43499;52.366;12.912;2022-12-24T05:05:17;18.08;;;9.15;;
57667;SDS011;43499;52.366;12.912;2022-12-24T05:06:37;16.42;;;9.25;;
57667;SDS011;43499;52.366;12.912;2022-12-24T05:07:38;16.45;;;9.27;;
57667;SDS011;43499;52.366;12.912;2022-12-24T05:08:39;22.20;;;9.90;;
57667;SDS011;43499;52.366;12.912;2022-12-24T05:09:40;25.83;;;9.85;;
57667;SDS011;43499;52.366;12.912;2022-12-24T05:10:41;35.20;;;10.65;;
57667;SDS011;43499;52.366;12.912;2022-12-24T05:11:42;24.55;;;9.85;;
57667;SDS011;43499;52.366;12.912;2022-12-24T05:12:43;21.42;;;9.93;;
57667;SDS011;43499;52.366;12.912;2022-12-24T05:13:45;23.00;;;10.50;;
57667;SDS011;43499;52.366;12.912;2022-12-24T05:14:47;19.05;;;9.88;;
57667;SDS011;43499;52.366;12.912;2022-12-24T05:15:48;21.80;;;10.18;;
57667;SDS011;43499;52.366;12.912;2022-12-24T05:16:49;28.67;;;11.23;;
57667;SDS011;43499;52.366;12.912;2022-12-24T05:17:50;32.65;;;10.82;;
57667;SDS011;43499;52.366;12.912;2022-12-24T05:18:51;24.77;;;11.05;;
57667;SDS011;43499;52.366;12.912;2022-12-24T05:19:52;24.85;;;11.18;;
57667;SDS011;43499;52.366;12.912;2022-12-24T05:20:53;30.77;;;11.48;;
57667;SDS011;43499;52.366;12.912;2022-12-24T05:21:54;22.23;;;10.43;;
57667;SDS011;43499;52.366;12.912;2022-12-24T05:24:34;21.70;;;9.05;;
57667;SDS011;43499;52.366;12.912;2022-12-24T05:25:54;23.27;;;10.57;;
57667;SDS011;43499;52.366;12.912;2022-12-24T05:27:14;20.05;;;9.15;;
57667;SDS011;43499;52.366;12.912;2022-12-24T05:28:15;19.48;;;9.77;;
57667;SDS011;43499;52.366;12.912;2022-12-24T05:29:16;18.08;;;9.35;;
57667;SDS011;43499;52.366;12.912;2022-12-24T05:30:17;20.35;;;10.27;;
57667;SDS011;43499;52.366;12.912;2022-12-24T05:31:18;18.50;;;9.80;;
57667;SDS011;43499;52.366;12.912;2022-12-24T05:32:20;22.10;;;9.68;;
57667;SDS011;43499;52.366;12.912;2022-12-24T05:33:21;22.88;;;10.20;;
57667;SDS011;43499;52.366;12.912;2022-12-24T05:34:22;22.27;;;10.68;;
57667;SDS011;43499;52.366;12.912;2022-12-24T05:35:23;19.13;;;10.13;;
57667;SDS011;43499;52.366;12.912;2022-12-24T05:36:24;23.65;;;10.18;;
57667;SDS011;43499;52.366;12.912;2022-12-24T05:37:25;21.05;;;9.38;;
57667;SDS011;43499;52.366;12.912;2022-12-24T05:38:26;20.25;;;10.07;;
57667;SDS011;43499;52.366;12.912;2022-12-24T05:39:27;20.15;;;10.20;;
57667;SDS011;43499;52.366;12.912;2022-12-24T05:40:28;19.38;;;10.35;;
57667;SDS011;43499;52.366;12.912;2022-12-24T05:41:30;17.90;;;9.75;;
57667;SDS011;43499;52.366;12.912;2022-12-24T05:42:32;22.27;;;10.77;;
57667;SDS011;43499;52.366;12.912;2022-12-24T05:43:33;18.90;;;9.40;;
57667;SDS011;43499;52.366;12.912;2022-12-24T05:44:34;20.30;;;10.00;;
57667;SDS011;43499;52.366;12.912;2022-12-24T05:45:35;17.27;;;9.20;;
57667;SDS011;43499;52.366;12.912;2022-12-24T05:46:36;19.77;;;10.20;;
57667;SDS011;43499;52.366;12.912;2022-12-24T05:47:37;20.77;;;11.43;;
57667;SDS011;43499;52.366;12.912;2022-12-24T05:48:38;21.08;;;10.05;;
57667;SDS011;43499;52.366;12.912;2022-12-24T05:49:40;21.15;;;9.23;;
57667;SDS011;43499;52.366;12.912;2022-12-24T05:50:41;17.23;;;8.82;;
57667;SDS011;43499;52.366;12.912;2022-12-24T05:51:42;15.80;;;8.75;;
57667;SDS011;43499;52.366;12.912;2022-12-24T05:52:43;18.48;;;8.63;;
57667;SDS011;43499;52.366;12.912;2022-12-24T05:53:44;16.73;;;9.02;;
57667;SDS011;43499;52.366;12.912;2022-12-24T05:54:46;13.93;;;8.25;;
57667;SDS011;43499;52.366;12.912;2022-12-24T05:55:47;12.88;;;7.97;;
57667;SDS011;43499;52.366;12.912;2022-12-24T05:56:48;17.60;;;8.43;;
57667;SDS011;43499;52.366;12.912;2022-12-24T05:57:49;17.50;;;10.20;;
57667;SDS011;43499;52.366;12.912;2022-12-24T05:58:51;17.35;;;10.20;;
57667;SDS011;43499;52.366;12.912;2022-12-24T05:59:53;16.27;;;9.85;;
57667;SDS011;43499;52.366;12.912;2022-12-24T06:00:54;17.50;;;10.07;;
57667;SDS011;43499;52.366;12.912;2022-12-24T06:01:55;16.70;;;10.18;;
57667;SDS011;43499;52.366;12.912;2022-12-24T06:02:56;19.25;;;9.60;;
57667;SDS011;43499;52.366;12.912;2022-12-24T06:03:57;15.95;;;9.27;;
57667;SDS011;43499;52.366;12.912;2022-12-24T06:04:58;17.10;;;10.02;;
57667;SDS011;43499;52.366;12.912;2022-12-24T06:07:11;16.67;;;9.20;;
57667;SDS011;43499;52.366;12.912;2022-12-24T06:08:12;20.23;;;9.77;;
57667;SDS011;43499;52.366;12.912;2022-12-24T06:09:13;18.30;;;9.57;;
57667;SDS011;43499;52.366;12.912;2022-12-24T06:10:15;15.38;;;9.40;;
57667;SDS011;43499;52.366;12.912;2022-12-24T06:11:17;16.05;;;9.20;;
57667;SDS011;43499;52.366;12.912;2022-12-24T06:12:19;19.75;;;9.80;;
57667;SDS011;43499;52.366;12.912;2022-12-24T06:13:21;19.05;;;10.15;;
57667;SDS011;43499;52.366;12.912;2022-12-24T06:14:22;21.48;;;9.88;;
57667;SDS011;43499;52.366;12.912;2022-12-24T06:15:23;19.48;;;10.90;;
57667;SDS011;43499;52.366;12.912;2022-12-24T06:16:24;18.13;;;10.50;;
57667;SDS011;43499;52.366;12.912;2022-12-24T06:17:25;17.42;;;10.02;;
57667;SDS011;43499;52.366;12.912;2022-12-24T06:18:27;21.35;;;10.63;;
57667;SDS011;43499;52.366;12.912;2022-12-24T06:19:30;21.23;;;10.30;;
57667;SDS011;43499;52.366;12.912;2022-12-24T06:20:31;21.45;;;11.27;;
57667;SDS011;43499;52.366;12.912;2022-12-24T06:21:32;18.85;;;10.27;;
57667;SDS011;43499;52.366;12.912;2022-12-24T06:22:33;23.23;;;11.73;;
57667;SDS011;43499;52.366;12.912;2022-12-24T06:23:35;18.98;;;9.90;;
57667;SDS011;43499;52.366;12.912;2022-12-24T06:24:37;19.83;;;10.93;;